Time;durP1;ratioP1;P1;durP2;ratioP2;P2;SDS_P1;SDS_P2;PMS_P1;PMS_P2;Temp;Humidity;BMP_temperature;BMP_pressure;BME280_temperature;BME280_humidity;BME280_pressure;Samples;Min_cycle;Max_cycle;Signal;HPM_P1;HPM_P2
2023/10/11 00:01:14;;;;;;;11.70;5.10;;;;;;;;;;6241008;28;20051;-83
2023/10/11 00:04:26;;;;;;;10.15;5.50;;;;;;;;;;6243921;28;20492;-84
2023/10/11 00:07:32;;;;;;;9.90;5.75;;;;;;;;;;6238796;28;20044;-84
2023/10/11 00:10:43;;;;;;;12.00;5.47;;;;;;;;;;6200388;28;20057;-84
2023/10/11 00:13:46;;;;;;;10.88;4.97;;;;;;;;;;6216236;28;20495;-85
2023/10/11 00:16:53;;;;;;;9.45;4.97;;;;;;;;;;6220211;28;20074;-83
2023/10/11 00:19:57;;;;;;;9.85;4.95;;;;;;;;;;6241061;28;20111;-84
2023/10/11 00:23:01;;;;;;;9.05;5.28;;;;;;;;;;6240085;28;20140;-84
2023/10/11 00:26:03;;;;;;;13.15;5.65;;;;;;;;;;6223952;28;20041;-84
2023/10/11 00:29:05;;;;;;;9.82;4.63;;;;;;;;;;6224299;28;20045;-84
2023/10/11 00:32:08;;;;;;;9.00;4.82;;;;;;;;;;6221744;28;20041;-83
2023/10/11 00:35:18;;;;;;;9.73;5.80;;;;;;;;;;6246598;28;20048;-84
2023/10/11 00:38:26;;;;;;;8.90;5.00;;;;;;;;;;6208746;28;20095;-83
2023/10/11 00:41:31;;;;;;;9.52;4.78;;;;;;;;;;6218935;28;20045;-83
2023/10/11 00:44:33;;;;;;;7.45;4.72;;;;;;;;;;6234895;28;20041;-83
2023/10/11 00:47:40;;;;;;;9.98;5.00;;;;;;;;;;6238948;28;20124;-84
2023/10/11 00:50:43;;;;;;;9.75;4.63;;;;;;;;;;6204878;28;20124;-84
2023/10/11 00:53:47;;;;;;;11.30;5.10;;;;;;;;;;6225480;28;20041;-83
2023/10/11 00:56:49;;;;;;;12.25;5.20;;;;;;;;;;6244132;28;20046;-84
2023/10/11 00:59:51;;;;;;;11.43;5.07;;;;;;;;;;6222067;28;20054;-85
2023/10/11 01:02:54;;;;;;;10.00;5.15;;;;;;;;;;6218121;28;20048;-84
2023/10/11 01:05:59;;;;;;;10.85;4.97;;;;;;;;;;6237114;28;20060;-84
2023/10/11 01:09:13;;;;;;;11.57;5.03;;;;;;;;;;6217216;28;20152;-84
2023/10/11 01:12:15;;;;;;;7.65;4.85;;;;;;;;;;6214384;28;20511;-84
2023/10/11 01:15:22;;;;;;;15.23;6.22;;;;;;;;;;6214217;28;20056;-84
2023/10/11 01:18:24;;;;;;;10.50;5.60;;;;;;;;;;6220069;28;20049;-84
2023/10/11 01:21:32;;;;;;;11.02;5.63;;;;;;;;;;6213967;28;20053;-84
2023/10/11 01:24:34;;;;;;;9.70;5.47;;;;;;;;;;6236589;28;20045;-84
2023/10/11 01:27:37;;;;;;;9.23;5.07;;;;;;;;;;6235941;28;20041;-84
2023/10/11 01:30:38;;;;;;;9.50;6.22;;;;;;;;;;6202641;28;20049;-84
2023/10/11 01:33:42;;;;;;;10.90;5.15;;;;;;;;;;6238725;28;20045;-83
2023/10/11 01:36:44;;;;;;;11.52;5.40;;;;;;;;;;6236522;28;20046;-84
2023/10/11 01:39:46;;;;;;;10.07;5.32;;;;;;;;;;6222194;28;20722;-84
2023/10/11 01:42:51;;;;;;;10.75;5.50;;;;;;;;;;6233410;28;20060;-84
2023/10/11 01:45:52;;;;;;;10.30;4.80;;;;;;;;;;6207912;28;20049;-84
2023/10/11 01:48:56;;;;;;;9.10;5.45;;;;;;;;;;6225811;28;20041;-85
2023/10/11 01:51:59;;;;;;;13.63;5.57;;;;;;;;;;6225639;28;20049;-84
2023/10/11 01:55:01;;;;;;;12.13;5.72;;;;;;;;;;6222954;28;20053;-85
2023/10/11 01:58:06;;;;;;;8.88;5.15;;;;;;;;;;6211756;28;20443;-84
2023/10/11 02:01:22;;;;;;;9.60;5.63;;;;;;;;;;6224316;28;20527;-85
2023/10/11 02:04:25;;;;;;;9.85;5.38;;;;;;;;;;6240194;28;20037;-85
2023/10/11 02:07:27;;;;;;;9.55;5.35;;;;;;;;;;6205371;28;20044;-85
2023/10/11 02:10:33;;;;;;;9.10;5.03;;;;;;;;;;6205873;28;20094;-85
2023/10/11 02:13:39;;;;;;;11.50;5.53;;;;;;;;;;6222331;28;20041;-84
2023/10/11 02:16:41;;;;;;;13.90;7.03;;;;;;;;;;6226480;28;20591;-84
2023/10/11 02:19:43;;;;;;;14.77;6.75;;;;;;;;;;6224811;28;20052;-84
2023/10/11 02:22:45;;;;;;;18.67;8.13;;;;;;;;;;6220184;28;20060;-84
2023/10/11 02:25:48;;;;;;;11.95;6.38;;;;;;;;;;6222655;28;20553;-85
2023/10/11 02:28:51;;;;;;;11.77;5.60;;;;;;;;;;6247767;28;20434;-83
2023/10/11 02:31:53;;;;;;;;;;;;;;;;;;6236998;28;20045;-84
2023/10/11 02:34:55;;;;;;;7.32;5.10;;;;;;;;;;6229548;28;19929;-84
2023/10/11 02:37:59;;;;;;;13.77;8.57;;;;;;;;;;6243557;28;20049;-84
2023/10/11 02:41:02;;;;;;;12.63;8.23;;;;;;;;;;6233701;28;20053;-84
2023/10/11 02:44:04;;;;;;;11.45;7.28;;;;;;;;;;6211315;28;20053;-84
2023/10/11 02:47:06;;;;;;;11.27;7.28;;;;;;;;;;6200265;28;20480;-83
2023/10/11 02:50:08;;;;;;;13.85;6.70;;;;;;;;;;6217958;28;20045;-84
2023/10/11 02:53:22;;;;;;;13.25;7.78;;;;;;;;;;6214089;28;20045;-84
2023/10/11 02:56:24;;;;;;;11.30;7.05;;;;;;;;;;6193563;28;20393;-84
2023/10/11 02:59:25;;;;;;;11.70;6.82;;;;;;;;;;6196678;28;20550;-83
2023/10/11 03:02:29;;;;;;;9.55;5.45;;;;;;;;;;6233888;28;20045;-84
2023/10/11 03:05:37;;;;;;;12.77;6.68;;;;;;;;;;6212392;28;20051;-83
2023/10/11 03:08:40;;;;;;;15.00;5.95;;;;;;;;;;6204232;28;20057;-84
2023/10/11 03:11:45;;;;;;;9.35;5.25;;;;;;;;;;6209999;28;20119;-84
2023/10/11 03:14:54;;;;;;;15.10;5.43;;;;;;;;;;6201339;28;20042;-83
2023/10/11 03:17:56;;;;;;;11.10;5.40;;;;;;;;;;6217288;28;20504;-84
2023/10/11 03:21:19;;;;;;;9.48;5.43;;;;;;;;;;6199820;28;20064;-84
2023/10/11 03:24:25;;;;;;;9.77;4.90;;;;;;;;;;6208547;28;20574;-84
2023/10/11 03:27:27;;;;;;;9.68;6.15;;;;;;;;;;6232976;28;20045;-83
2023/10/11 03:30:35;;;;;;;11.03;5.20;;;;;;;;;;6213425;28;20046;-83
2023/10/11 03:33:37;;;;;;;12.05;5.32;;;;;;;;;;6202056;28;20467;-83
2023/10/11 03:36:52;;;;;;;9.38;5.80;;;;;;;;;;6234605;28;20057;-84
2023/10/11 03:39:56;;;;;;;11.30;5.63;;;;;;;;;;6230674;28;20049;-84
2023/10/11 03:43:03;;;;;;;8.95;5.20;;;;;;;;;;6229305;28;20073;-84
2023/10/11 03:46:06;;;;;;;9.40;5.20;;;;;;;;;;6218734;28;20047;-83
2023/10/11 03:55:23;;;;;;;10.60;4.93;;;;;;;;;;6212677;28;19920;-83
2023/10/11 04:01:37;;;;;;;11.30;5.20;;;;;;;;;;6234122;28;20056;-83
2023/10/11 04:04:42;;;;;;;9.85;4.93;;;;;;;;;;6236003;28;20056;-84
2023/10/11 04:07:44;;;;;;;10.48;5.25;;;;;;;;;;6219754;28;20109;-83
2023/10/11 04:10:49;;;;;;;11.73;5.30;;;;;;;;;;6194827;28;20080;-83
2023/10/11 04:13:53;;;;;;;11.00;6.53;;;;;;;;;;6233608;28;20069;-84
2023/10/11 04:16:56;;;;;;;;;;;;;;;;;;6238319;28;20046;-85
2023/10/11 04:23:24;;;;;;;12.30;5.68;;;;;;;;;;6224440;28;20455;-84
2023/10/11 04:26:33;;;;;;;11.15;6.13;;;;;;;;;;6230215;28;20052;-84
2023/10/11 04:29:38;;;;;;;9.68;5.63;;;;;;;;;;6227221;28;20187;-85
2023/10/11 04:32:45;;;;;;;9.45;5.85;;;;;;;;;;6223938;28;20051;-85
2023/10/11 04:35:57;;;;;;;12.65;6.13;;;;;;;;;;6247206;28;20061;-84
2023/10/11 04:39:14;;;;;;;12.10;5.78;;;;;;;;;;6226951;28;20136;-85
2023/10/11 04:42:19;;;;;;;8.90;6.03;;;;;;;;;;6243268;28;20543;-83
2023/10/11 04:45:22;;;;;;;10.20;6.10;;;;;;;;;;6210719;28;20527;-84
2023/10/11 04:48:40;;;;;;;13.65;5.95;;;;;;;;;;6247173;28;20118;-84
2023/10/11 04:51:45;;;;;;;11.10;5.65;;;;;;;;;;6220852;28;20045;-84
2023/10/11 04:54:54;;;;;;;7.82;5.15;;;;;;;;;;6223070;28;20496;-83
2023/10/11 04:58:07;;;;;;;9.75;5.47;;;;;;;;;;6224239;28;20392;-84
2023/10/11 05:01:11;;;;;;;9.23;4.97;;;;;;;;;;6238507;28;20041;-83
2023/10/11 05:04:28;;;;;;;8.20;4.65;;;;;;;;;;6228238;28;20049;-84
2023/10/11 05:07:30;;;;;;;9.60;4.80;;;;;;;;;;6218512;28;20037;-84
2023/10/11 05:10:43;;;;;;;;;;;;;;;;;;6221605;28;20049;-84
2023/10/11 05:13:59;;;;;;;7.80;5.22;;;;;;;;;;6241264;28;20062;-84
2023/10/11 05:23:18;;;;;;;9.55;5.32;;;;;;;;;;6225048;28;20496;-84
2023/10/11 05:26:36;;;;;;;9.73;4.57;;;;;;;;;;6247312;28;20029;-84
2023/10/11 05:30:06;;;;;;;9.88;4.90;;;;;;;;;;6238635;28;20117;-83
2023/10/11 05:36:14;;;;;;;11.40;5.93;;;;;;;;;;6226140;28;20049;-82
2023/10/11 05:52:43;;;;;;;10.25;5.28;;;;;;;;;;6204615;28;20049;-84
2023/10/11 05:55:44;;;;;;;10.02;5.57;;;;;;;;;;6244630;28;20041;-85
2023/10/11 05:58:49;;;;;;;10.30;5.53;;;;;;;;;;6209554;28;20049;-85
2023/10/11 06:01:52;;;;;;;11.85;5.85;;;;;;;;;;6240285;28;20045;-86
2023/10/11 06:04:55;;;;;;;10.30;5.60;;;;;;;;;;6219879;28;20042;-85
2023/10/11 06:08:04;;;;;;;12.60;6.13;;;;;;;;;;6241865;28;20503;-85
2023/10/11 06:11:08;;;;;;;9.32;5.30;;;;;;;;;;6222849;28;20381;-84
2023/10/11 06:14:12;;;;;;;10.48;5.60;;;;;;;;;;6197273;28;20142;-85
2023/10/11 06:17:16;;;;;;;12.13;6.55;;;;;;;;;;6237849;28;20100;-84
2023/10/11 06:20:27;;;;;;;12.05;7.13;;;;;;;;;;6197872;28;20046;-84
2023/10/11 06:23:30;;;;;;;7.82;4.82;;;;;;;;;;6223734;28;20116;-85
2023/10/11 06:29:45;;;;;;;9.25;5.35;;;;;;;;;;6218997;28;20415;-84
2023/10/11 06:32:49;;;;;;;8.43;4.82;;;;;;;;;;6236440;28;20553;-85
2023/10/11 06:35:53;;;;;;;11.27;6.32;;;;;;;;;;6216929;28;20046;-85
2023/10/11 06:38:54;;;;;;;;;;;;;;;;;;6236233;28;20045;-84
2023/10/11 06:41:58;;;;;;;10.30;5.20;;;;;;;;;;6234440;28;19930;-84
2023/10/11 06:45:01;;;;;;;8.18;5.72;;;;;;;;;;6234029;28;20045;-84
2023/10/11 06:48:06;;;;;;;8.20;4.60;;;;;;;;;;6218878;28;20056;-84
2023/10/11 06:51:08;;;;;;;10.32;4.88;;;;;;;;;;6220174;28;20045;-85
2023/10/11 06:54:11;;;;;;;10.85;5.05;;;;;;;;;;6239873;28;20044;-85
2023/10/11 06:57:19;;;;;;;11.00;5.22;;;;;;;;;;6208589;28;20068;-85
2023/10/11 07:00:36;;;;;;;11.48;4.65;;;;;;;;;;6235027;28;20045;-84
2023/10/11 07:03:39;;;;;;;9.90;4.63;;;;;;;;;;6218726;28;20515;-84
2023/10/11 07:06:42;;;;;;;9.75;4.35;;;;;;;;;;6234839;28;20436;-84
2023/10/11 07:09:56;;;;;;;7.40;4.68;;;;;;;;;;6239096;28;20052;-82
2023/10/11 07:13:11;;;;;;;11.32;4.43;;;;;;;;;;6200079;28;20041;-82
2023/10/11 07:16:13;;;;;;;21.88;5.35;;;;;;;;;;6232239;28;20440;-82
2023/10/11 07:19:18;;;;;;;13.50;5.63;;;;;;;;;;6201536;28;20041;-82
2023/10/11 07:22:25;;;;;;;10.18;4.40;;;;;;;;;;6211752;28;20465;-82
2023/10/11 07:25:45;;;;;;;19.30;6.00;;;;;;;;;;6209771;28;20046;-83
2023/10/11 07:28:51;;;;;;;21.40;5.68;;;;;;;;;;6223800;28;20072;-82
2023/10/11 07:31:53;;;;;;;10.63;4.50;;;;;;;;;;6203122;28;20414;-83
2023/10/11 07:34:55;;;;;;;11.23;4.55;;;;;;;;;;6239517;28;20512;-83
2023/10/11 07:37:57;;;;;;;10.02;4.80;;;;;;;;;;6197377;28;20586;-82
2023/10/11 07:41:04;;;;;;;20.50;6.05;;;;;;;;;;6214926;28;20048;-82
2023/10/11 07:44:06;;;;;;;11.45;5.30;;;;;;;;;;6203687;28;20061;-83
2023/10/11 07:47:18;;;;;;;13.10;4.72;;;;;;;;;;6214599;28;20881;-84
2023/10/11 07:50:23;;;;;;;12.43;5.15;;;;;;;;;;6219103;28;20386;-86
2023/10/11 07:53:25;;;;;;;9.25;4.57;;;;;;;;;;6235570;28;20048;-83
2023/10/11 07:56:27;;;;;;;9.40;4.43;;;;;;;;;;6222498;28;20171;-82
2023/10/11 07:59:30;;;;;;;10.35;5.00;;;;;;;;;;6214923;28;20056;-85
2023/10/11 08:02:41;;;;;;;8.73;4.40;;;;;;;;;;6208146;28;20132;-84
2023/10/11 08:05:47;;;;;;;9.20;4.88;;;;;;;;;;6225309;28;20175;-85
2023/10/11 08:09:01;;;;;;;8.90;4.20;;;;;;;;;;6195213;28;20410;-84
2023/10/11 08:12:07;;;;;;;10.80;4.30;;;;;;;;;;6221898;28;20281;-85
2023/10/11 08:15:11;;;;;;;8.00;4.25;;;;;;;;;;6234878;28;20175;-85
2023/10/11 08:18:16;;;;;;;9.57;4.45;;;;;;;;;;6222758;28;20499;-86
2023/10/11 08:21:18;;;;;;;10.38;4.50;;;;;;;;;;6210916;28;20175;-86
2023/10/11 08:24:24;;;;;;;10.52;4.60;;;;;;;;;;6214304;28;20057;-85
2023/10/11 08:27:29;;;;;;;7.60;4.60;;;;;;;;;;6223143;28;20399;-84
2023/10/11 08:30:36;;;;;;;9.05;4.13;;;;;;;;;;6224856;28;20045;-86
2023/10/11 08:33:38;;;;;;;7.95;3.72;;;;;;;;;;6219570;28;20037;-84
2023/10/11 08:36:42;;;;;;;7.13;4.25;;;;;;;;;;6236566;28;20057;-83
2023/10/11 08:39:45;;;;;;;8.57;3.58;;;;;;;;;;6225072;28;20042;-83
2023/10/11 08:42:50;;;;;;;8.93;4.20;;;;;;;;;;6196925;28;20113;-85
2023/10/11 08:46:05;;;;;;;8.82;4.38;;;;;;;;;;6237625;28;20044;-85
2023/10/11 08:49:07;;;;;;;14.27;4.63;;;;;;;;;;6223479;28;20049;-86
2023/10/11 08:52:10;;;;;;;12.15;3.92;;;;;;;;;;6228329;28;20720;-84
2023/10/11 08:55:14;;;;;;;15.20;4.63;;;;;;;;;;6235260;28;20060;-85
2023/10/11 08:58:27;;;;;;;9.25;4.22;;;;;;;;;;6219620;28;20049;-83
2023/10/11 09:01:34;;;;;;;8.98;4.38;;;;;;;;;;6197007;28;20045;-84
2023/10/11 09:05:28;;;;;;;12.23;4.65;;;;;;;;;;6222278;28;20049;-84
2023/10/11 09:08:32;;;;;;;8.38;4.10;;;;;;;;;;6238931;28;20126;-84
2023/10/11 09:11:35;;;;;;;10.57;4.45;;;;;;;;;;6237980;28;20120;-85
2023/10/11 09:14:37;;;;;;;8.65;3.90;;;;;;;;;;6202779;28;20049;-84
2023/10/11 09:17:41;;;;;;;11.38;4.25;;;;;;;;;;6223424;28;20058;-85
2023/10/11 09:20:49;;;;;;;6.60;4.00;;;;;;;;;;6213262;28;20158;-84
2023/10/11 09:23:51;;;;;;;8.48;3.75;;;;;;;;;;6240045;28;20504;-85
2023/10/11 09:30:21;;;;;;;7.03;3.75;;;;;;;;;;6258527;28;20068;-84
2023/10/11 09:33:34;;;;;;;13.13;3.75;;;;;;;;;;6265798;28;20056;-84
2023/10/11 09:36:37;;;;;;;7.90;3.75;;;;;;;;;;6239091;28;20053;-84
2023/10/11 09:39:42;;;;;;;9.85;3.63;;;;;;;;;;6243313;28;20068;-84
2023/10/11 09:42:47;;;;;;;8.38;3.65;;;;;;;;;;6220140;28;20176;-84
2023/10/11 09:45:53;;;;;;;13.93;4.10;;;;;;;;;;6238139;28;20052;-84
2023/10/11 09:48:59;;;;;;;8.70;3.95;;;;;;;;;;6231463;28;20045;-85
2023/10/11 09:52:07;;;;;;;9.27;3.40;;;;;;;;;;6234311;28;20042;-85
2023/10/11 09:55:17;;;;;;;12.57;3.85;;;;;;;;;;6216424;28;20056;-84
2023/10/11 09:58:42;;;;;;;7.50;3.92;;;;;;;;;;6217069;28;20673;-84
2023/10/11 10:02:02;;;;;;;9.20;3.60;;;;;;;;;;6215824;28;20037;-85
2023/10/11 10:05:06;;;;;;;9.32;3.60;;;;;;;;;;6201414;28;20469;-86
2023/10/11 10:08:17;;;;;;;8.50;3.92;;;;;;;;;;6219753;28;20050;-87
2023/10/11 10:11:19;;;;;;;7.60;3.30;;;;;;;;;;6210789;28;20049;-88
2023/10/11 10:14:24;;;;;;;8.35;3.38;;;;;;;;;;6203558;28;20045;-86
2023/10/11 10:17:28;;;;;;;10.80;3.63;;;;;;;;;;6213230;28;20049;-87
2023/10/11 10:20:42;;;;;;;10.50;3.78;;;;;;;;;;6233112;28;20042;-87
2023/10/11 10:23:44;;;;;;;7.43;3.30;;;;;;;;;;6210753;28;20049;-86
2023/10/11 10:26:45;;;;;;;9.33;3.37;;;;;;;;;;6223012;28;20038;-87
2023/10/11 10:29:59;;;;;;;10.27;3.50;;;;;;;;;;6218520;28;20451;-87
2023/10/11 10:33:18;;;;;;;9.25;3.20;;;;;;;;;;6233547;28;20136;-86
2023/10/11 10:36:29;;;;;;;9.77;4.32;;;;;;;;;;6211294;28;20136;-86
2023/10/11 10:39:46;;;;;;;7.75;3.50;;;;;;;;;;6214488;28;20048;-86
2023/10/11 10:43:07;;;;;;;10.45;3.58;;;;;;;;;;6191875;28;20045;-87
2023/10/11 10:46:08;;;;;;;5.32;3.17;;;;;;;;;;6220910;28;20148;-86
2023/10/11 10:49:11;;;;;;;9.00;3.43;;;;;;;;;;6202590;28;20037;-87
2023/10/11 10:52:16;;;;;;;9.45;3.80;;;;;;;;;;6229665;28;20452;-87
2023/10/11 10:55:18;;;;;;;9.82;3.63;;;;;;;;;;6218195;28;20049;-86
2023/10/11 10:58:22;;;;;;;10.13;3.60;;;;;;;;;;6208567;28;20055;-86
2023/10/11 11:01:28;;;;;;;7.60;3.17;;;;;;;;;;6215413;28;20057;-86
2023/10/11 11:04:32;;;;;;;8.32;3.20;;;;;;;;;;6215254;28;20053;-87
2023/10/11 11:07:34;;;;;;;10.85;3.60;;;;;;;;;;6216876;28;20469;-87
2023/10/11 11:10:37;;;;;;;10.87;3.73;;;;;;;;;;6236948;28;20411;-89
2023/10/11 11:13:39;;;;;;;6.78;3.10;;;;;;;;;;6207962;28;20048;-89
2023/10/11 11:16:44;;;;;;;8.23;3.15;;;;;;;;;;6204424;28;20056;-88
2023/10/11 11:20:12;;;;;;;11.10;3.50;;;;;;;;;;6218788;28;20046;-88
2023/10/11 11:23:23;;;;;;;6.80;3.47;;;;;;;;;;6209235;28;20045;-88
2023/10/11 11:26:31;;;;;;;6.95;2.88;;;;;;;;;;6215741;28;20041;-88
2023/10/11 11:29:34;;;;;;;6.13;3.13;;;;;;;;;;6237040;28;20094;-89
2023/10/11 11:32:39;;;;;;;9.68;3.28;;;;;;;;;;6206219;28;20401;-87
2023/10/11 11:35:44;;;;;;;8.05;2.90;;;;;;;;;;6235337;28;20049;-86
2023/10/11 11:38:46;;;;;;;9.60;3.33;;;;;;;;;;6223315;28;20048;-86
2023/10/11 11:41:49;;;;;;;9.15;3.63;;;;;;;;;;6226601;28;20056;-87
2023/10/11 11:44:51;;;;;;;6.90;3.10;;;;;;;;;;6201512;28;20045;-87
2023/10/11 11:47:56;;;;;;;9.85;3.67;;;;;;;;;;6224033;28;20419;-87
2023/10/11 11:50:58;;;;;;;9.32;3.03;;;;;;;;;;6226469;28;20507;-86
2023/10/11 11:54:00;;;;;;;7.07;3.10;;;;;;;;;;6218300;28;20632;-86
2023/10/11 11:57:07;;;;;;;5.97;2.97;;;;;;;;;;6240850;28;20495;-87
2023/10/11 12:03:27;;;;;;;8.27;3.00;;;;;;;;;;6238881;28;20057;-86
2023/10/11 12:06:34;;;;;;;7.63;3.05;;;;;;;;;;6206556;28;20045;-88
2023/10/11 12:09:38;;;;;;;7.47;3.00;;;;;;;;;;6217967;28;20048;-86
2023/10/11 12:13:05;;;;;;;;;;;;;;;;;;6235438;28;20045;-86
2023/10/11 12:16:09;;;;;;;7.20;2.90;;;;;;;;;;6239475;28;19979;-86
2023/10/11 12:19:13;;;;;;;5.82;2.90;;;;;;;;;;6222946;28;20492;-87
2023/10/11 12:22:14;;;;;;;7.57;2.50;;;;;;;;;;6222666;28;20084;-87
2023/10/11 12:25:24;;;;;;;7.43;2.65;;;;;;;;;;6240638;28;20488;-87
2023/10/11 12:28:27;;;;;;;9.43;3.08;;;;;;;;;;6214347;28;20041;-86
2023/10/11 12:31:29;;;;;;;;;;;;;;;;;;6227225;28;20068;-87
2023/10/11 12:34:33;;;;;;;12.13;3.00;;;;;;;;;;6237619;28;19921;-87
2023/10/11 12:37:40;;;;;;;8.05;3.08;;;;;;;;;;6238734;28;20041;-86
2023/10/11 12:40:44;;;;;;;7.80;3.00;;;;;;;;;;6238091;28;20049;-86
2023/10/11 12:43:49;;;;;;;9.13;3.15;;;;;;;;;;6211020;28;20049;-87
2023/10/11 12:46:51;;;;;;;6.35;2.80;;;;;;;;;;6217024;28;20045;-87
2023/10/11 12:49:53;;;;;;;11.25;2.83;;;;;;;;;;6224635;28;20042;-87
2023/10/11 12:52:55;;;;;;;7.43;2.95;;;;;;;;;;6207301;28;20140;-88
2023/10/11 12:55:57;;;;;;;9.32;2.70;;;;;;;;;;6229469;28;20065;-87
2023/10/11 12:58:58;;;;;;;6.17;2.80;;;;;;;;;;6202590;28;20436;-86
2023/10/11 13:02:00;;;;;;;5.18;2.63;;;;;;;;;;6233002;28;20830;-87
2023/10/11 13:05:02;;;;;;;10.93;3.10;;;;;;;;;;6208646;28;20061;-87
2023/10/11 13:08:06;;;;;;;9.70;2.83;;;;;;;;;;6237720;28;20057;-87
2023/10/11 13:11:12;;;;;;;8.55;2.83;;;;;;;;;;6237288;28;20048;-88
2023/10/11 13:14:18;;;;;;;5.00;2.78;;;;;;;;;;6221285;28;20049;-87
2023/10/11 13:17:20;;;;;;;7.55;2.85;;;;;;;;;;6237730;28;20125;-87
2023/10/11 13:20:31;;;;;;;8.13;2.88;;;;;;;;;;6220943;28;20401;-87
2023/10/11 13:23:34;;;;;;;7.60;3.00;;;;;;;;;;6205650;28;20507;-87
2023/10/11 13:26:36;;;;;;;8.32;3.15;;;;;;;;;;6230013;28;20119;-86
2023/10/11 13:29:38;;;;;;;6.45;2.90;;;;;;;;;;6205134;28;20049;-86
2023/10/11 13:32:40;;;;;;;4.43;2.63;;;;;;;;;;6198962;28;20045;-88
2023/10/11 13:35:42;;;;;;;6.65;2.45;;;;;;;;;;6236897;28;20784;-86
2023/10/11 13:38:45;;;;;;;7.25;2.78;;;;;;;;;;6219665;28;20512;-86
2023/10/11 13:41:48;;;;;;;8.52;2.78;;;;;;;;;;6208297;28;20036;-87
2023/10/11 13:44:54;;;;;;;6.40;2.90;;;;;;;;;;6231679;28;20041;-86
2023/10/11 13:47:57;;;;;;;6.28;3.00;;;;;;;;;;6224228;28;20112;-87
2023/10/11 13:51:03;;;;;;;12.48;3.08;;;;;;;;;;6218692;28;20037;-86
2023/10/11 13:54:18;;;;;;;7.10;3.53;;;;;;;;;;6219666;28;20057;-86
2023/10/11 13:57:22;;;;;;;13.65;3.75;;;;;;;;;;6232353;28;20041;-85
2023/10/11 14:03:48;;;;;;;8.80;2.95;;;;;;;;;;6219524;28;20389;-86
2023/10/11 14:07:59;;;;;;;8.85;3.17;;;;;;;;;;6217882;28;20045;-86
2023/10/11 14:10:36;;;;;;;14.07;3.10;;;;;;;;;;6201622;28;20045;-86
2023/10/11 14:13:38;;;;;;;8.25;3.25;;;;;;;;;;6207980;28;20061;-86
2023/10/11 14:16:41;;;;;;;;;;;;;;;;;;6210926;28;20497;-85
2023/10/11 14:19:45;;;;;;;12.15;2.90;;;;;;;;;;6210998;28;19921;-85
2023/10/11 14:22:51;;;;;;;9.15;3.15;;;;;;;;;;6231570;28;20426;-86
2023/10/11 14:25:57;;;;;;;8.13;2.90;;;;;;;;;;6209755;28;20045;-85
2023/10/11 14:28:59;;;;;;;10.30;3.30;;;;;;;;;;6214704;28;20484;-86
2023/10/11 14:32:01;;;;;;;8.27;2.80;;;;;;;;;;6234132;28;20132;-85
2023/10/11 14:35:08;;;;;;;8.60;3.10;;;;;;;;;;6209722;28;20079;-86
2023/10/11 14:38:14;;;;;;;7.65;2.80;;;;;;;;;;6210632;28;20526;-85
2023/10/11 14:41:21;;;;;;;8.88;3.22;;;;;;;;;;6199622;28;20049;-86
2023/10/11 14:44:24;;;;;;;8.05;3.00;;;;;;;;;;6202493;28;20045;-87
2023/10/11 14:47:26;;;;;;;5.70;2.70;;;;;;;;;;6201853;28;20049;-86
2023/10/11 14:50:28;;;;;;;10.65;2.70;;;;;;;;;;6249460;28;20051;-86
2023/10/11 14:53:33;;;;;;;9.60;2.80;;;;;;;;;;6225444;28;20045;-85
2023/10/11 14:56:35;;;;;;;8.35;3.10;;;;;;;;;;6203190;28;20053;-86
2023/10/11 14:59:37;;;;;;;10.68;2.80;;;;;;;;;;6192830;28;20048;-86
2023/10/11 15:02:39;;;;;;;7.13;2.63;;;;;;;;;;6239202;28;20189;-86
2023/10/11 15:05:40;;;;;;;9.73;2.88;;;;;;;;;;6217392;28;20452;-86
2023/10/11 15:08:43;;;;;;;9.87;2.87;;;;;;;;;;6230503;28;20179;-86
2023/10/11 15:11:46;;;;;;;7.63;2.83;;;;;;;;;;6205178;28;20041;-86
2023/10/11 15:14:48;;;;;;;7.30;3.03;;;;;;;;;;6219093;28;20450;-87
2023/10/11 15:17:52;;;;;;;8.35;3.20;;;;;;;;;;6229038;28;20343;-86
2023/10/11 15:20:54;;;;;;;8.40;2.80;;;;;;;;;;6189343;28;20049;-86
2023/10/11 15:23:56;;;;;;;10.93;3.03;;;;;;;;;;6231451;28;20056;-86
2023/10/11 15:26:58;;;;;;;6.43;2.63;;;;;;;;;;6214503;28;20049;-87
2023/10/11 15:30:00;;;;;;;8.90;2.83;;;;;;;;;;6234535;28;20046;-86
2023/10/11 15:33:03;;;;;;;8.13;2.78;;;;;;;;;;6196442;28;20527;-86
2023/10/11 15:36:07;;;;;;;6.82;3.05;;;;;;;;;;6219246;28;20045;-86
2023/10/11 15:39:10;;;;;;;8.88;2.78;;;;;;;;;;6214693;28;20450;-86
2023/10/11 15:42:12;;;;;;;9.05;3.13;;;;;;;;;;6208363;28;20053;-85
2023/10/11 15:45:18;;;;;;;7.10;2.63;;;;;;;;;;6203131;28;20042;-86
2023/10/11 15:48:20;;;;;;;13.48;2.80;;;;;;;;;;6203851;28;20045;-86
2023/10/11 15:51:23;;;;;;;8.77;2.70;;;;;;;;;;6220940;28;20042;-86
2023/10/11 15:54:25;;;;;;;8.20;2.80;;;;;;;;;;6214901;28;20128;-86
2023/10/11 15:57:27;;;;;;;6.30;2.60;;;;;;;;;;6223038;28;20045;-86
2023/10/11 16:00:30;;;;;;;5.60;2.67;;;;;;;;;;6225318;28;20041;-86
2023/10/11 16:03:35;;;;;;;6.80;2.63;;;;;;;;;;6244438;28;20064;-85
2023/10/11 16:06:37;;;;;;;6.72;2.60;;;;;;;;;;6239952;28;20049;-85
2023/10/11 16:09:40;;;;;;;6.70;2.80;;;;;;;;;;6242940;28;20045;-86
2023/10/11 16:12:42;;;;;;;9.02;2.92;;;;;;;;;;6205452;28;20132;-84
2023/10/11 16:15:45;;;;;;;8.80;2.60;;;;;;;;;;6237086;28;20052;-83
2023/10/11 16:18:47;;;;;;;9.00;2.60;;;;;;;;;;6221794;28;20135;-83
2023/10/11 16:21:49;;;;;;;5.53;2.65;;;;;;;;;;6242327;28;20470;-83
2023/10/11 16:24:50;;;;;;;11.83;3.47;;;;;;;;;;6222170;28;20111;-83
2023/10/11 16:27:52;;;;;;;7.18;2.70;;;;;;;;;;6227610;28;20122;-83
2023/10/11 16:30:59;;;;;;;5.70;2.73;;;;;;;;;;6201684;28;20046;-83
2023/10/11 16:34:00;;;;;;;8.65;2.70;;;;;;;;;;6218158;28;21273;-83
2023/10/11 16:37:05;;;;;;;7.67;2.60;;;;;;;;;;6217043;28;20064;-83
2023/10/11 16:40:15;;;;;;;6.80;2.55;;;;;;;;;;6239194;28;20471;-83
2023/10/11 16:43:20;;;;;;;7.25;2.85;;;;;;;;;;6219507;28;20115;-83
2023/10/11 16:46:22;;;;;;;7.60;2.60;;;;;;;;;;6239273;28;20059;-83
2023/10/11 16:49:33;;;;;;;4.88;2.92;;;;;;;;;;6226223;28;20063;-84
2023/10/11 16:52:34;;;;;;;9.43;3.60;;;;;;;;;;6231684;28;20045;-83
2023/10/11 16:55:37;;;;;;;6.30;3.15;;;;;;;;;;6228826;28;20053;-84
2023/10/11 16:58:44;;;;;;;7.13;2.92;;;;;;;;;;6229420;28;20121;-83
2023/10/11 17:01:45;;;;;;;9.00;3.97;;;;;;;;;;6240142;28;20129;-83
2023/10/11 17:04:47;;;;;;;9.33;4.90;;;;;;;;;;6229389;28;20041;-84
2023/10/11 17:07:51;;;;;;;7.65;3.92;;;;;;;;;;6206639;28;20045;-83
2023/10/11 17:10:57;;;;;;;11.23;4.07;;;;;;;;;;6204833;28;20321;-83
2023/10/11 17:13:59;;;;;;;11.00;3.63;;;;;;;;;;6206394;28;20048;-83
2023/10/11 17:17:01;;;;;;;9.55;4.43;;;;;;;;;;6219750;28;20053;-82
2023/10/11 17:20:14;;;;;;;14.35;7.22;;;;;;;;;;6219031;28;20135;-83
2023/10/11 17:23:16;;;;;;;11.63;5.00;;;;;;;;;;6232493;28;20492;-83
2023/10/11 17:26:18;;;;;;;11.32;4.80;;;;;;;;;;6233667;28;20419;-83
2023/10/11 17:29:20;;;;;;;9.80;3.65;;;;;;;;;;6211436;28;20048;-82
2023/10/11 17:32:21;;;;;;;9.18;3.05;;;;;;;;;;6232966;28;20053;-83
2023/10/11 17:35:23;;;;;;;8.50;3.38;;;;;;;;;;6239139;28;20091;-83
2023/10/11 17:38:26;;;;;;;7.88;3.50;;;;;;;;;;6209677;28;20053;-83
2023/10/11 17:41:28;;;;;;;11.85;3.58;;;;;;;;;;6231801;28;20132;-83
2023/10/11 17:44:31;;;;;;;8.40;3.47;;;;;;;;;;6215090;28;20056;-82
2023/10/11 17:47:36;;;;;;;8.55;3.88;;;;;;;;;;6218318;28;20282;-82
2023/10/11 17:50:38;;;;;;;10.38;4.03;;;;;;;;;;6220215;28;20153;-83
2023/10/11 17:53:42;;;;;;;11.15;4.45;;;;;;;;;;6216104;28;20042;-82
2023/10/11 17:56:45;;;;;;;11.02;3.67;;;;;;;;;;6211025;28;20180;-83
2023/10/11 17:59:47;;;;;;;11.38;4.03;;;;;;;;;;6238552;28;20041;-84
2023/10/11 18:02:50;;;;;;;8.48;3.63;;;;;;;;;;6216252;28;20045;-85
2023/10/11 18:05:52;;;;;;;10.77;4.78;;;;;;;;;;6212820;28;20051;-84
2023/10/11 18:08:54;;;;;;;13.70;4.47;;;;;;;;;;6215784;28;20049;-83
2023/10/11 18:11:55;;;;;;;9.63;3.72;;;;;;;;;;6232519;28;20452;-83
2023/10/11 18:15:04;;;;;;;9.55;4.43;;;;;;;;;;6206512;28;20053;-83
2023/10/11 18:18:08;;;;;;;9.85;3.97;;;;;;;;;;6234212;28;20240;-83
2023/10/11 18:21:10;;;;;;;7.32;4.00;;;;;;;;;;6234269;28;20358;-82
2023/10/11 18:24:14;;;;;;;11.55;4.60;;;;;;;;;;6214208;28;20052;-83
2023/10/11 18:27:20;;;;;;;11.43;3.70;;;;;;;;;;6216915;28;20144;-84
2023/10/11 18:30:23;;;;;;;8.05;3.88;;;;;;;;;;6231886;28;20069;-84
2023/10/11 18:33:25;;;;;;;8.25;3.88;;;;;;;;;;6202125;28;20508;-82
2023/10/11 18:36:29;;;;;;;9.95;4.28;;;;;;;;;;6202662;28;20045;-82
2023/10/11 18:39:31;;;;;;;11.57;5.53;;;;;;;;;;6233394;28;20041;-80
2023/10/11 18:42:37;;;;;;;12.50;9.98;;;;;;;;;;6229801;28;20064;-81
2023/10/11 18:45:38;;;;;;;15.75;5.10;;;;;;;;;;6212231;28;20055;-80
2023/10/11 18:48:40;;;;;;;13.85;4.70;;;;;;;;;;6207378;28;20215;-81
2023/10/11 18:51:43;;;;;;;10.27;4.18;;;;;;;;;;6209295;28;20045;-81
2023/10/11 18:54:45;;;;;;;10.15;4.72;;;;;;;;;;6213900;28;20057;-81
2023/10/11 18:57:51;;;;;;;11.07;4.18;;;;;;;;;;6227892;28;20731;-82
2023/10/11 19:00:55;;;;;;;8.10;4.15;;;;;;;;;;6232989;28;20053;-81
2023/10/11 19:03:57;;;;;;;10.35;4.07;;;;;;;;;;6213963;28;20049;-83
2023/10/11 19:07:05;;;;;;;8.40;4.65;;;;;;;;;;6228114;28;20409;-82
2023/10/11 19:10:07;;;;;;;9.90;4.32;;;;;;;;;;6227039;28;20049;-81
2023/10/11 19:13:09;;;;;;;7.57;4.50;;;;;;;;;;6225629;28;20064;-82
2023/10/11 19:16:18;;;;;;;7.95;4.72;;;;;;;;;;6214800;28;20123;-81